sensor_id;sensor_type;location;lat;lon;timestamp;P1;durP1;ratioP1;P2;durP2;ratioP2
13611;SDS011;6877;51.436;6.774;2023-04-06T00:01:13;14.48;;;7.88;;
13611;SDS011;6877;51.436;6.774;2023-04-06T00:03:39;18.20;;;8.93;;
13611;SDS011;6877;51.436;6.774;2023-04-06T00:06:06;19.98;;;9.07;;
13611;SDS011;6877;51.436;6.774;2023-04-06T00:08:37;13.93;;;8.15;;
13611;SDS011;6877;51.436;6.774;2023-04-06T00:11:04;14.35;;;7.22;;
13611;SDS011;6877;51.436;6.774;2023-04-06T00:13:36;16.05;;;7.78;;
13611;SDS011;6877;51.436;6.774;2023-04-06T00:16:03;16.02;;;8.15;;
13611;SDS011;6877;51.436;6.774;2023-04-06T00:18:31;13.20;;;7.30;;
13611;SDS011;6877;51.436;6.774;2023-04-06T00:20:58;14.68;;;8.63;;
13611;SDS011;6877;51.436;6.774;2023-04-06T00:23:29;15.60;;;9.23;;
13611;SDS011;6877;51.436;6.774;2023-04-06T00:25:56;13.13;;;7.75;;
13611;SDS011;6877;51.436;6.774;2023-04-06T00:28:23;14.43;;;9.13;;
13611;SDS011;6877;51.436;6.774;2023-04-06T00:30:52;13.75;;;6.90;;
13611;SDS011;6877;51.436;6.774;2023-04-06T00:33:26;12.98;;;6.68;;
13611;SDS011;6877;51.436;6.774;2023-04-06T00:35:52;12.40;;;7.38;;
13611;SDS011;6877;51.436;6.774;2023-04-06T00:38:19;15.90;;;8.05;;
13611;SDS011;6877;51.436;6.774;2023-04-06T00:40:46;14.90;;;7.78;;
13611;SDS011;6877;51.436;6.774;2023-04-06T00:43:17;14.80;;;7.65;;
13611;SDS011;6877;51.436;6.774;2023-04-06T00:45:44;14.70;;;8.10;;
13611;SDS011;6877;51.436;6.774;2023-04-06T00:48:15;12.73;;;7.47;;
13611;SDS011;6877;51.436;6.774;2023-04-06T00:50:42;11.13;;;6.78;;
13611;SDS011;6877;51.436;6.774;2023-04-06T00:53:09;14.45;;;6.43;;
13611;SDS011;6877;51.436;6.774;2023-04-06T00:55:35;13.98;;;7.32;;
13611;SDS011;6877;51.436;6.774;2023-04-06T00:58:02;16.27;;;8.90;;
13611;SDS011;6877;51.436;6.774;2023-04-06T01:00:29;17.90;;;8.85;;
13611;SDS011;6877;51.436;6.774;2023-04-06T01:03:01;18.77;;;8.63;;
13611;SDS011;6877;51.436;6.774;2023-04-06T01:05:29;11.95;;;7.28;;
13611;SDS011;6877;51.436;6.774;2023-04-06T01:08:01;11.70;;;7.15;;
13611;SDS011;6877;51.436;6.774;2023-04-06T01:10:27;13.30;;;7.07;;
13611;SDS011;6877;51.436;6.774;2023-04-06T01:12:54;14.90;;;8.50;;
13611;SDS011;6877;51.436;6.774;2023-04-06T01:15:21;17.38;;;8.88;;
13611;SDS011;6877;51.436;6.774;2023-04-06T01:17:53;15.45;;;9.07;;
13611;SDS011;6877;51.436;6.774;2023-04-06T01:20:19;16.23;;;8.15;;
13611;SDS011;6877;51.436;6.774;2023-04-06T01:22:46;17.35;;;8.68;;
13611;SDS011;6877;51.436;6.774;2023-04-06T01:25:17;19.38;;;9.43;;
13611;SDS011;6877;51.436;6.774;2023-04-06T01:27:44;16.45;;;8.98;;
13611;SDS011;6877;51.436;6.774;2023-04-06T01:30:11;17.25;;;8.88;;
13611;SDS011;6877;51.436;6.774;2023-04-06T01:32:37;14.68;;;8.60;;
13611;SDS011;6877;51.436;6.774;2023-04-06T01:35:04;17.48;;;9.68;;
13611;SDS011;6877;51.436;6.774;2023-04-06T01:37:31;19.77;;;10.23;;
13611;SDS011;6877;51.436;6.774;2023-04-06T01:39:59;16.98;;;10.10;;
13611;SDS011;6877;51.436;6.774;2023-04-06T01:42:31;18.08;;;9.35;;
13611;SDS011;6877;51.436;6.774;2023-04-06T01:45:00;16.30;;;9.60;;
13611;SDS011;6877;51.436;6.774;2023-04-06T01:47:32;18.15;;;9.50;;
13611;SDS011;6877;51.436;6.774;2023-04-06T01:49:58;20.38;;;10.75;;
13611;SDS011;6877;51.436;6.774;2023-04-06T01:52:25;14.25;;;10.13;;
13611;SDS011;6877;51.436;6.774;2023-04-06T01:54:56;17.40;;;9.60;;
13611;SDS011;6877;51.436;6.774;2023-04-06T01:57:23;23.92;;;10.57;;
13611;SDS011;6877;51.436;6.774;2023-04-06T01:59:54;16.50;;;8.57;;
13611;SDS011;6877;51.436;6.774;2023-04-06T02:02:26;19.00;;;9.52;;
13611;SDS011;6877;51.436;6.774;2023-04-06T02:04:57;18.17;;;8.82;;
13611;SDS011;6877;51.436;6.774;2023-04-06T02:07:24;18.15;;;9.70;;
13611;SDS011;6877;51.436;6.774;2023-04-06T02:09:53;15.35;;;9.20;;
13611;SDS011;6877;51.436;6.774;2023-04-06T02:12:20;28.05;;;10.30;;
13611;SDS011;6877;51.436;6.774;2023-04-06T02:14:52;20.23;;;10.35;;
13611;SDS011;6877;51.436;6.774;2023-04-06T02:17:23;20.95;;;9.70;;
13611;SDS011;6877;51.436;6.774;2023-04-06T02:19:50;24.35;;;10.73;;
13611;SDS011;6877;51.436;6.774;2023-04-06T02:22:16;19.67;;;11.25;;
13611;SDS011;6877;51.436;6.774;2023-04-06T02:24:48;17.88;;;9.93;;
13611;SDS011;6877;51.436;6.774;2023-04-06T02:27:14;20.08;;;10.68;;
13611;SDS011;6877;51.436;6.774;2023-04-06T02:29:41;24.25;;;11.25;;
13611;SDS011;6877;51.436;6.774;2023-04-06T02:32:07;16.10;;;9.65;;
13611;SDS011;6877;51.436;6.774;2023-04-06T02:34:39;18.92;;;9.40;;
13611;SDS011;6877;51.436;6.774;2023-04-06T02:37:05;20.02;;;9.85;;
13611;SDS011;6877;51.436;6.774;2023-04-06T02:39:37;22.13;;;11.35;;
13611;SDS011;6877;51.436;6.774;2023-04-06T02:42:08;22.45;;;12.23;;
13611;SDS011;6877;51.436;6.774;2023-04-06T02:44:35;25.88;;;9.98;;
13611;SDS011;6877;51.436;6.774;2023-04-06T02:47:06;22.85;;;10.55;;
13611;SDS011;6877;51.436;6.774;2023-04-06T02:49:38;20.50;;;11.93;;
13611;SDS011;6877;51.436;6.774;2023-04-06T02:52:04;26.77;;;13.88;;
13611;SDS011;6877;51.436;6.774;2023-04-06T02:54:35;22.63;;;11.95;;
13611;SDS011;6877;51.436;6.774;2023-04-06T02:57:02;17.67;;;10.63;;
13611;SDS011;6877;51.436;6.774;2023-04-06T02:59:28;22.83;;;11.82;;
13611;SDS011;6877;51.436;6.774;2023-04-06T03:02:00;18.50;;;10.82;;
13611;SDS011;6877;51.436;6.774;2023-04-06T03:04:26;19.60;;;12.07;;
13611;SDS011;6877;51.436;6.774;2023-04-06T03:06:53;19.13;;;11.77;;
13611;SDS011;6877;51.436;6.774;2023-04-06T03:09:20;21.88;;;12.05;;
13611;SDS011;6877;51.436;6.774;2023-04-06T03:11:52;22.83;;;12.05;;
13611;SDS011;6877;51.436;6.774;2023-04-06T03:14:23;19.45;;;11.25;;
13611;SDS011;6877;51.436;6.774;2023-04-06T03:16:55;19.55;;;10.95;;
13611;SDS011;6877;51.436;6.774;2023-04-06T03:19:26;19.60;;;11.20;;
13611;SDS011;6877;51.436;6.774;2023-04-06T03:21:58;26.10;;;11.43;;
13611;SDS011;6877;51.436;6.774;2023-04-06T03:24:24;21.88;;;11.55;;
13611;SDS011;6877;51.436;6.774;2023-04-06T03:26:51;18.13;;;10.15;;
13611;SDS011;6877;51.436;6.774;2023-04-06T03:29:22;22.33;;;12.15;;
13611;SDS011;6877;51.436;6.774;2023-04-06T03:31:49;19.45;;;9.70;;
13611;SDS011;6877;51.436;6.774;2023-04-06T03:34:15;20.77;;;11.18;;
13611;SDS011;6877;51.436;6.774;2023-04-06T03:36:41;21.13;;;11.20;;
13611;SDS011;6877;51.436;6.774;2023-04-06T03:39:08;21.35;;;11.43;;
13611;SDS011;6877;51.436;6.774;2023-04-06T03:41:34;21.45;;;11.68;;
13611;SDS011;6877;51.436;6.774;2023-04-06T03:44:01;20.63;;;10.25;;
13611;SDS011;6877;51.436;6.774;2023-04-06T03:46:27;17.38;;;11.00;;
13611;SDS011;6877;51.436;6.774;2023-04-06T03:48:54;19.88;;;10.82;;
13611;SDS011;6877;51.436;6.774;2023-04-06T03:51:21;20.80;;;11.25;;
13611;SDS011;6877;51.436;6.774;2023-04-06T03:53:47;20.08;;;10.68;;
13611;SDS011;6877;51.436;6.774;2023-04-06T03:56:14;20.60;;;10.80;;
13611;SDS011;6877;51.436;6.774;2023-04-06T03:58:40;19.30;;;11.38;;
13611;SDS011;6877;51.436;6.774;2023-04-06T04:01:07;22.80;;;11.15;;
13611;SDS011;6877;51.436;6.774;2023-04-06T04:03:33;24.13;;;10.77;;
13611;SDS011;6877;51.436;6.774;2023-04-06T04:06:00;20.63;;;10.25;;
13611;SDS011;6877;51.436;6.774;2023-04-06T04:08:26;20.83;;;10.25;;
13611;SDS011;6877;51.436;6.774;2023-04-06T04:10:58;17.90;;;11.63;;
13611;SDS011;6877;51.436;6.774;2023-04-06T04:13:29;16.67;;;9.90;;
13611;SDS011;6877;51.436;6.774;2023-04-06T04:15:56;23.17;;;12.27;;
13611;SDS011;6877;51.436;6.774;2023-04-06T04:18:22;19.75;;;11.07;;
13611;SDS011;6877;51.436;6.774;2023-04-06T04:20:54;21.13;;;10.43;;
13611;SDS011;6877;51.436;6.774;2023-04-06T04:23:20;20.15;;;11.80;;
13611;SDS011;6877;51.436;6.774;2023-04-06T04:25:47;19.63;;;10.32;;
13611;SDS011;6877;51.436;6.774;2023-04-06T04:28:13;16.10;;;10.98;;
13611;SDS011;6877;51.436;6.774;2023-04-06T04:30:39;20.23;;;10.82;;
13611;SDS011;6877;51.436;6.774;2023-04-06T04:33:06;23.58;;;11.20;;
13611;SDS011;6877;51.436;6.774;2023-04-06T04:35:33;20.70;;;11.30;;
13611;SDS011;6877;51.436;6.774;2023-04-06T04:37:59;21.45;;;10.77;;
13611;SDS011;6877;51.436;6.774;2023-04-06T04:40:30;16.40;;;10.27;;
13611;SDS011;6877;51.436;6.774;2023-04-06T04:42:57;23.05;;;10.10;;
13611;SDS011;6877;51.436;6.774;2023-04-06T04:45:28;20.35;;;9.55;;
13611;SDS011;6877;51.436;6.774;2023-04-06T04:48:00;19.08;;;10.88;;
13611;SDS011;6877;51.436;6.774;2023-04-06T04:50:26;19.85;;;10.95;;
13611;SDS011;6877;51.436;6.774;2023-04-06T04:52:53;20.50;;;10.25;;
13611;SDS011;6877;51.436;6.774;2023-04-06T04:55:19;19.08;;;10.20;;
13611;SDS011;6877;51.436;6.774;2023-04-06T04:57:46;25.67;;;10.88;;
13611;SDS011;6877;51.436;6.774;2023-04-06T05:00:17;20.02;;;9.88;;
13611;SDS011;6877;51.436;6.774;2023-04-06T05:02:43;15.50;;;9.73;;
13611;SDS011;6877;51.436;6.774;2023-04-06T05:05:10;19.25;;;10.02;;
13611;SDS011;6877;51.436;6.774;2023-04-06T05:07:36;18.17;;;9.15;;
13611;SDS011;6877;51.436;6.774;2023-04-06T05:10:03;19.88;;;9.30;;
13611;SDS011;6877;51.436;6.774;2023-04-06T05:12:35;18.10;;;9.75;;
13611;SDS011;6877;51.436;6.774;2023-04-06T05:15:03;18.27;;;10.90;;
13611;SDS011;6877;51.436;6.774;2023-04-06T05:17:30;19.48;;;9.57;;
13611;SDS011;6877;51.436;6.774;2023-04-06T05:19:56;18.55;;;10.35;;
13611;SDS011;6877;51.436;6.774;2023-04-06T05:22:28;18.15;;;10.00;;
13611;SDS011;6877;51.436;6.774;2023-04-06T05:25:01;20.15;;;10.45;;
13611;SDS011;6877;51.436;6.774;2023-04-06T05:27:27;24.95;;;10.15;;
13611;SDS011;6877;51.436;6.774;2023-04-06T05:29:59;25.92;;;10.55;;
13611;SDS011;6877;51.436;6.774;2023-04-06T05:32:26;18.23;;;10.40;;
13611;SDS011;6877;51.436;6.774;2023-04-06T05:34:53;19.77;;;10.98;;
13611;SDS011;6877;51.436;6.774;2023-04-06T05:37:20;18.85;;;9.68;;
13611;SDS011;6877;51.436;6.774;2023-04-06T05:39:51;15.93;;;9.45;;
13611;SDS011;6877;51.436;6.774;2023-04-06T05:42:18;20.27;;;10.00;;
13611;SDS011;6877;51.436;6.774;2023-04-06T05:44:50;18.30;;;10.45;;
13611;SDS011;6877;51.436;6.774;2023-04-06T05:47:17;15.63;;;8.93;;
13611;SDS011;6877;51.436;6.774;2023-04-06T05:49:43;20.02;;;10.15;;
13611;SDS011;6877;51.436;6.774;2023-04-06T05:52:15;18.83;;;9.07;;
13611;SDS011;6877;51.436;6.774;2023-04-06T05:54:41;17.88;;;11.30;;
13611;SDS011;6877;51.436;6.774;2023-04-06T05:57:08;18.30;;;9.98;;
13611;SDS011;6877;51.436;6.774;2023-04-06T05:59:39;21.88;;;10.18;;
13611;SDS011;6877;51.436;6.774;2023-04-06T06:02:06;18.83;;;10.70;;
13611;SDS011;6877;51.436;6.774;2023-04-06T06:04:32;20.98;;;11.25;;
13611;SDS011;6877;51.436;6.774;2023-04-06T06:06:59;15.70;;;8.65;;
13611;SDS011;6877;51.436;6.774;2023-04-06T06:09:26;19.60;;;9.48;;
13611;SDS011;6877;51.436;6.774;2023-04-06T06:11:57;20.77;;;10.35;;
13611;SDS011;6877;51.436;6.774;2023-04-06T06:14:24;18.98;;;9.98;;
13611;SDS011;6877;51.436;6.774;2023-04-06T06:16:50;21.55;;;9.95;;
13611;SDS011;6877;51.436;6.774;2023-04-06T06:19:17;16.33;;;9.38;;
13611;SDS011;6877;51.436;6.774;2023-04-06T06:21:43;17.20;;;9.50;;
13611;SDS011;6877;51.436;6.774;2023-04-06T06:24:10;14.25;;;8.88;;
13611;SDS011;6877;51.436;6.774;2023-04-06T06:26:36;16.20;;;9.13;;
13611;SDS011;6877;51.436;6.774;2023-04-06T06:29:03;19.65;;;10.10;;
13611;SDS011;6877;51.436;6.774;2023-04-06T06:31:31;13.93;;;8.25;;
13611;SDS011;6877;51.436;6.774;2023-04-06T06:33:58;13.60;;;8.48;;
13611;SDS011;6877;51.436;6.774;2023-04-06T06:36:25;16.60;;;8.82;;
13611;SDS011;6877;51.436;6.774;2023-04-06T06:38:51;15.43;;;9.05;;
13611;SDS011;6877;51.436;6.774;2023-04-06T06:41:23;17.23;;;9.18;;
13611;SDS011;6877;51.436;6.774;2023-04-06T06:43:50;17.13;;;8.95;;
13611;SDS011;6877;51.436;6.774;2023-04-06T06:46:16;15.27;;;9.05;;
13611;SDS011;6877;51.436;6.774;2023-04-06T06:48:43;22.65;;;9.02;;
13611;SDS011;6877;51.436;6.774;2023-04-06T06:51:09;12.73;;;8.57;;
13611;SDS011;6877;51.436;6.774;2023-04-06T06:53:37;18.63;;;8.95;;
13611;SDS011;6877;51.436;6.774;2023-04-06T06:56:04;15.43;;;8.68;;
13611;SDS011;6877;51.436;6.774;2023-04-06T06:58:30;13.20;;;8.27;;
13611;SDS011;6877;51.436;6.774;2023-04-06T07:01:02;10.82;;;7.20;;
13611;SDS011;6877;51.436;6.774;2023-04-06T07:03:31;15.75;;;9.07;;
13611;SDS011;6877;51.436;6.774;2023-04-06T07:05:57;12.02;;;7.78;;
13611;SDS011;6877;51.436;6.774;2023-04-06T07:08:23;15.18;;;8.70;;
13611;SDS011;6877;51.436;6.774;2023-04-06T07:10:55;13.95;;;8.30;;
13611;SDS011;6877;51.436;6.774;2023-04-06T07:13:22;15.88;;;9.15;;
13611;SDS011;6877;51.436;6.774;2023-04-06T07:15:49;13.80;;;8.15;;
13611;SDS011;6877;51.436;6.774;2023-04-06T07:18:17;17.70;;;8.07;;
13611;SDS011;6877;51.436;6.774;2023-04-06T07:20:46;16.40;;;8.43;;
13611;SDS011;6877;51.436;6.774;2023-04-06T07:23:13;19.95;;;8.40;;
13611;SDS011;6877;51.436;6.774;2023-04-06T07:25:44;13.55;;;7.60;;
13611;SDS011;6877;51.436;6.774;2023-04-06T07:28:11;14.27;;;9.15;;
13611;SDS011;6877;51.436;6.774;2023-04-06T07:30:38;12.75;;;7.85;;
13611;SDS011;6877;51.436;6.774;2023-04-06T07:33:04;15.32;;;8.80;;
13611;SDS011;6877;51.436;6.774;2023-04-06T07:35:36;13.15;;;7.85;;
13611;SDS011;6877;51.436;6.774;2023-04-06T07:38:03;16.50;;;7.90;;
13611;SDS011;6877;51.436;6.774;2023-04-06T07:40:30;17.25;;;9.43;;
13611;SDS011;6877;51.436;6.774;2023-04-06T07:43:03;14.65;;;9.35;;
13611;SDS011;6877;51.436;6.774;2023-04-06T07:45:29;15.05;;;10.15;;
13611;SDS011;6877;51.436;6.774;2023-04-06T07:47:56;18.55;;;9.63;;
13611;SDS011;6877;51.436;6.774;2023-04-06T07:50:22;13.38;;;8.65;;
13611;SDS011;6877;51.436;6.774;2023-04-06T07:52:49;19.10;;;9.10;;
13611;SDS011;6877;51.436;6.774;2023-04-06T07:55:15;12.07;;;8.43;;
13611;SDS011;6877;51.436;6.774;2023-04-06T07:57:42;19.80;;;9.13;;
13611;SDS011;6877;51.436;6.774;2023-04-06T08:00:08;16.25;;;9.88;;
13611;SDS011;6877;51.436;6.774;2023-04-06T08:02:36;19.33;;;9.88;;
13611;SDS011;6877;51.436;6.774;2023-04-06T08:05:02;14.25;;;8.30;;
13611;SDS011;6877;51.436;6.774;2023-04-06T08:07:29;12.05;;;7.80;;
13611;SDS011;6877;51.436;6.774;2023-04-06T08:09:55;14.73;;;9.30;;
13611;SDS011;6877;51.436;6.774;2023-04-06T08:12:22;14.77;;;8.35;;
13611;SDS011;6877;51.436;6.774;2023-04-06T08:14:48;17.80;;;9.55;;
13611;SDS011;6877;51.436;6.774;2023-04-06T08:17:15;13.50;;;8.95;;
13611;SDS011;6877;51.436;6.774;2023-04-06T08:19:43;14.48;;;9.85;;
13611;SDS011;6877;51.436;6.774;2023-04-06T08:22:10;18.65;;;9.73;;
13611;SDS011;6877;51.436;6.774;2023-04-06T08:24:42;17.05;;;8.98;;
13611;SDS011;6877;51.436;6.774;2023-04-06T08:27:08;14.77;;;10.27;;
13611;SDS011;6877;51.436;6.774;2023-04-06T08:29:40;18.58;;;9.63;;
13611;SDS011;6877;51.436;6.774;2023-04-06T08:32:07;14.40;;;9.52;;
13611;SDS011;6877;51.436;6.774;2023-04-06T08:34:33;16.23;;;9.68;;
13611;SDS011;6877;51.436;6.774;2023-04-06T08:37:00;17.98;;;8.73;;
13611;SDS011;6877;51.436;6.774;2023-04-06T08:39:31;16.27;;;9.15;;
13611;SDS011;6877;51.436;6.774;2023-04-06T08:42:09;10.60;;;7.40;;
13611;SDS011;6877;51.436;6.774;2023-04-06T08:44:43;13.32;;;8.48;;
13611;SDS011;6877;51.436;6.774;2023-04-06T08:47:14;16.98;;;8.90;;
13611;SDS011;6877;51.436;6.774;2023-04-06T08:49:40;14.35;;;9.65;;
13611;SDS011;6877;51.436;6.774;2023-04-06T08:52:10;15.27;;;9.38;;
13611;SDS011;6877;51.436;6.774;2023-04-06T08:54:37;16.40;;;9.35;;
13611;SDS011;6877;51.436;6.774;2023-04-06T08:57:04;13.98;;;9.70;;
13611;SDS011;6877;51.436;6.774;2023-04-06T08:59:31;13.23;;;8.45;;
13611;SDS011;6877;51.436;6.774;2023-04-06T09:02:03;11.38;;;8.25;;
13611;SDS011;6877;51.436;6.774;2023-04-06T09:04:33;11.02;;;7.13;;
13611;SDS011;6877;51.436;6.774;2023-04-06T09:07:02;14.52;;;8.95;;
13611;SDS011;6877;51.436;6.774;2023-04-06T09:09:28;13.95;;;9.38;;
13611;SDS011;6877;51.436;6.774;2023-04-06T09:11:55;16.60;;;9.70;;
13611;SDS011;6877;51.436;6.774;2023-04-06T09:14:34;13.57;;;7.95;;
13611;SDS011;6877;51.436;6.774;2023-04-06T09:17:02;15.00;;;9.27;;
13611;SDS011;6877;51.436;6.774;2023-04-06T09:19:28;14.60;;;9.45;;
13611;SDS011;6877;51.436;6.774;2023-04-06T09:22:04;13.07;;;8.80;;
13611;SDS011;6877;51.436;6.774;2023-04-06T09:27:07;15.88;;;9.50;;
13611;SDS011;6877;51.436;6.774;2023-04-06T09:29:33;16.83;;;9.70;;
13611;SDS011;6877;51.436;6.774;2023-04-06T09:32:06;14.93;;;8.65;;
13611;SDS011;6877;51.436;6.774;2023-04-06T09:34:39;14.63;;;9.57;;
13611;SDS011;6877;51.436;6.774;2023-04-06T09:37:18;17.67;;;10.18;;
13611;SDS011;6877;51.436;6.774;2023-04-06T09:39:45;19.92;;;12.32;;
13611;SDS011;6877;51.436;6.774;2023-04-06T09:42:24;17.27;;;10.80;;
13611;SDS011;6877;51.436;6.774;2023-04-06T09:44:51;16.90;;;11.38;;
13611;SDS011;6877;51.436;6.774;2023-04-06T09:47:18;19.63;;;12.98;;
13611;SDS011;6877;51.436;6.774;2023-04-06T09:49:50;25.70;;;13.32;;
13611;SDS011;6877;51.436;6.774;2023-04-06T09:52:26;18.27;;;12.10;;
13611;SDS011;6877;51.436;6.774;2023-04-06T09:54:59;20.98;;;12.13;;
13611;SDS011;6877;51.436;6.774;2023-04-06T09:57:32;20.10;;;12.07;;
13611;SDS011;6877;51.436;6.774;2023-04-06T10:00:22;21.17;;;12.18;;
13611;SDS011;6877;51.436;6.774;2023-04-06T10:05:40;19.15;;;12.18;;
13611;SDS011;6877;51.436;6.774;2023-04-06T10:08:15;20.60;;;12.15;;
13611;SDS011;6877;51.436;6.774;2023-04-06T10:10:42;21.27;;;12.73;;
13611;SDS011;6877;51.436;6.774;2023-04-06T10:13:09;19.80;;;12.13;;
13611;SDS011;6877;51.436;6.774;2023-04-06T10:15:38;18.50;;;10.85;;
13611;SDS011;6877;51.436;6.774;2023-04-06T10:18:05;20.70;;;12.18;;
13611;SDS011;6877;51.436;6.774;2023-04-06T10:23:36;20.50;;;12.02;;
13611;SDS011;6877;51.436;6.774;2023-04-06T10:26:12;20.48;;;11.48;;
13611;SDS011;6877;51.436;6.774;2023-04-06T10:28:40;19.23;;;12.00;;
13611;SDS011;6877;51.436;6.774;2023-04-06T10:31:12;25.60;;;12.88;;
13611;SDS011;6877;51.436;6.774;2023-04-06T10:33:40;23.92;;;12.88;;
13611;SDS011;6877;51.436;6.774;2023-04-06T10:38:42;19.63;;;12.48;;
13611;SDS011;6877;51.436;6.774;2023-04-06T10:41:12;23.55;;;13.20;;
13611;SDS011;6877;51.436;6.774;2023-04-06T10:43:40;22.17;;;12.18;;
13611;SDS011;6877;51.436;6.774;2023-04-06T10:46:07;26.27;;;13.45;;
13611;SDS011;6877;51.436;6.774;2023-04-06T10:48:40;26.15;;;13.77;;
13611;SDS011;6877;51.436;6.774;2023-04-06T10:51:13;24.02;;;11.82;;
13611;SDS011;6877;51.436;6.774;2023-04-06T10:53:41;22.33;;;12.85;;
13611;SDS011;6877;51.436;6.774;2023-04-06T10:56:24;23.02;;;12.15;;
13611;SDS011;6877;51.436;6.774;2023-04-06T10:58:58;21.73;;;12.80;;
13611;SDS011;6877;51.436;6.774;2023-04-06T11:01:25;24.48;;;13.38;;
13611;SDS011;6877;51.436;6.774;2023-04-06T11:03:55;25.42;;;11.98;;
13611;SDS011;6877;51.436;6.774;2023-04-06T11:06:25;26.90;;;13.32;;
13611;SDS011;6877;51.436;6.774;2023-04-06T11:08:59;23.00;;;14.45;;
13611;SDS011;6877;51.436;6.774;2023-04-06T11:11:31;22.15;;;12.57;;
13611;SDS011;6877;51.436;6.774;2023-04-06T11:14:02;26.85;;;14.30;;
13611;SDS011;6877;51.436;6.774;2023-04-06T11:16:30;27.48;;;14.70;;
13611;SDS011;6877;51.436;6.774;2023-04-06T11:18:58;23.08;;;13.93;;
13611;SDS011;6877;51.436;6.774;2023-04-06T11:21:39;31.70;;;14.27;;
13611;SDS011;6877;51.436;6.774;2023-04-06T11:24:23;25.35;;;13.50;;
13611;SDS011;6877;51.436;6.774;2023-04-06T11:29:23;26.83;;;13.95;;
13611;SDS011;6877;51.436;6.774;2023-04-06T11:32:01;23.45;;;13.55;;
13611;SDS011;6877;51.436;6.774;2023-04-06T11:34:29;31.30;;;17.02;;
13611;SDS011;6877;51.436;6.774;2023-04-06T11:37:07;23.25;;;14.10;;
13611;SDS011;6877;51.436;6.774;2023-04-06T11:39:43;27.45;;;14.00;;
13611;SDS011;6877;51.436;6.774;2023-04-06T11:42:20;29.70;;;15.10;;
13611;SDS011;6877;51.436;6.774;2023-04-06T11:44:49;26.23;;;14.82;;
13611;SDS011;6877;51.436;6.774;2023-04-06T11:47:17;26.80;;;13.90;;
13611;SDS011;6877;51.436;6.774;2023-04-06T11:49:43;28.77;;;15.25;;
13611;SDS011;6877;51.436;6.774;2023-04-06T11:54:55;32.38;;;15.43;;
13611;SDS011;6877;51.436;6.774;2023-04-06T11:57:23;28.08;;;15.20;;
13611;SDS011;6877;51.436;6.774;2023-04-06T11:59:54;27.88;;;13.75;;
13611;SDS011;6877;51.436;6.774;2023-04-06T12:02:21;24.95;;;14.77;;
13611;SDS011;6877;51.436;6.774;2023-04-06T12:04:47;25.48;;;13.60;;
13611;SDS011;6877;51.436;6.774;2023-04-06T12:07:14;25.83;;;13.57;;
13611;SDS011;6877;51.436;6.774;2023-04-06T12:09:41;26.05;;;14.57;;
13611;SDS011;6877;51.436;6.774;2023-04-06T12:12:07;21.42;;;11.80;;
13611;SDS011;6877;51.436;6.774;2023-04-06T12:14:34;23.48;;;13.05;;
13611;SDS011;6877;51.436;6.774;2023-04-06T12:17:05;32.20;;;14.18;;
13611;SDS011;6877;51.436;6.774;2023-04-06T12:19:36;33.35;;;13.77;;
13611;SDS011;6877;51.436;6.774;2023-04-06T12:22:08;21.25;;;12.13;;
13611;SDS011;6877;51.436;6.774;2023-04-06T12:24:34;22.58;;;12.43;;
13611;SDS011;6877;51.436;6.774;2023-04-06T12:27:01;30.30;;;12.88;;
13611;SDS011;6877;51.436;6.774;2023-04-06T12:29:27;25.25;;;13.73;;
13611;SDS011;6877;51.436;6.774;2023-04-06T12:31:54;25.98;;;12.73;;
13611;SDS011;6877;51.436;6.774;2023-04-06T12:34:20;28.88;;;15.40;;
13611;SDS011;6877;51.436;6.774;2023-04-06T12:36:47;37.05;;;13.23;;
13611;SDS011;6877;51.436;6.774;2023-04-06T12:39:14;29.83;;;14.48;;
13611;SDS011;6877;51.436;6.774;2023-04-06T12:41:40;24.92;;;14.23;;
13611;SDS011;6877;51.436;6.774;2023-04-06T12:44:12;26.20;;;13.82;;
13611;SDS011;6877;51.436;6.774;2023-04-06T12:46:38;19.77;;;12.20;;
13611;SDS011;6877;51.436;6.774;2023-04-06T12:49:10;19.15;;;11.48;;
13611;SDS011;6877;51.436;6.774;2023-04-06T12:51:42;17.23;;;10.75;;
13611;SDS011;6877;51.436;6.774;2023-04-06T12:54:08;26.90;;;13.82;;
13611;SDS011;6877;51.436;6.774;2023-04-06T12:56:40;27.55;;;13.38;;
13611;SDS011;6877;51.436;6.774;2023-04-06T12:59:07;20.65;;;10.90;;
13611;SDS011;6877;51.436;6.774;2023-04-06T13:01:38;17.55;;;9.73;;
13611;SDS011;6877;51.436;6.774;2023-04-06T13:04:05;21.17;;;10.75;;
13611;SDS011;6877;51.436;6.774;2023-04-06T13:06:31;18.67;;;9.98;;
13611;SDS011;6877;51.436;6.774;2023-04-06T13:09:03;20.90;;;11.32;;
13611;SDS011;6877;51.436;6.774;2023-04-06T13:11:31;18.90;;;10.60;;
13611;SDS011;6877;51.436;6.774;2023-04-06T13:13:57;17.25;;;11.27;;
13611;SDS011;6877;51.436;6.774;2023-04-06T13:16:24;16.83;;;9.35;;
13611;SDS011;6877;51.436;6.774;2023-04-06T13:18:56;13.15;;;8.40;;
13611;SDS011;6877;51.436;6.774;2023-04-06T13:21:22;15.75;;;8.30;;
13611;SDS011;6877;51.436;6.774;2023-04-06T13:23:48;15.05;;;7.32;;
13611;SDS011;6877;51.436;6.774;2023-04-06T13:26:15;17.88;;;7.55;;
13611;SDS011;6877;51.436;6.774;2023-04-06T13:28:42;13.07;;;7.10;;
13611;SDS011;6877;51.436;6.774;2023-04-06T13:31:14;13.52;;;6.88;;
13611;SDS011;6877;51.436;6.774;2023-04-06T13:33:46;14.55;;;6.80;;
13611;SDS011;6877;51.436;6.774;2023-04-06T13:36:12;12.60;;;7.15;;
13611;SDS011;6877;51.436;6.774;2023-04-06T13:38:39;13.73;;;7.43;;
13611;SDS011;6877;51.436;6.774;2023-04-06T13:41:17;14.15;;;7.47;;
13611;SDS011;6877;51.436;6.774;2023-04-06T13:43:47;18.58;;;8.38;;
13611;SDS011;6877;51.436;6.774;2023-04-06T13:46:14;11.55;;;7.53;;
13611;SDS011;6877;51.436;6.774;2023-04-06T13:48:40;11.18;;;7.68;;
13611;SDS011;6877;51.436;6.774;2023-04-06T13:51:11;12.48;;;7.32;;
13611;SDS011;6877;51.436;6.774;2023-04-06T13:53:39;13.07;;;7.65;;
13611;SDS011;6877;51.436;6.774;2023-04-06T13:56:11;13.27;;;8.15;;
13611;SDS011;6877;51.436;6.774;2023-04-06T13:58:37;18.63;;;7.60;;
13611;SDS011;6877;51.436;6.774;2023-04-06T14:01:07;13.23;;;8.85;;
13611;SDS011;6877;51.436;6.774;2023-04-06T14:03:35;13.38;;;8.98;;
13611;SDS011;6877;51.436;6.774;2023-04-06T14:06:12;14.65;;;8.93;;
13611;SDS011;6877;51.436;6.774;2023-04-06T14:08:39;16.88;;;9.15;;
13611;SDS011;6877;51.436;6.774;2023-04-06T14:11:10;17.40;;;9.57;;
13611;SDS011;6877;51.436;6.774;2023-04-06T14:13:38;21.55;;;8.10;;
13611;SDS011;6877;51.436;6.774;2023-04-06T14:16:10;17.95;;;9.80;;
13611;SDS011;6877;51.436;6.774;2023-04-06T14:18:36;17.52;;;8.90;;
13611;SDS011;6877;51.436;6.774;2023-04-06T14:21:03;15.98;;;9.43;;
13611;SDS011;6877;51.436;6.774;2023-04-06T14:23:29;20.25;;;9.32;;
13611;SDS011;6877;51.436;6.774;2023-04-06T14:26:02;23.05;;;9.10;;
13611;SDS011;6877;51.436;6.774;2023-04-06T14:28:37;15.73;;;7.88;;
13611;SDS011;6877;51.436;6.774;2023-04-06T14:31:10;14.38;;;9.05;;
13611;SDS011;6877;51.436;6.774;2023-04-06T14:33:44;15.90;;;7.95;;
13611;SDS011;6877;51.436;6.774;2023-04-06T14:36:10;15.75;;;8.98;;
13611;SDS011;6877;51.436;6.774;2023-04-06T14:38:37;15.10;;;8.05;;
13611;SDS011;6877;51.436;6.774;2023-04-06T14:41:04;10.82;;;7.43;;
13611;SDS011;6877;51.436;6.774;2023-04-06T14:43:31;17.70;;;9.88;;
13611;SDS011;6877;51.436;6.774;2023-04-06T14:46:02;13.25;;;8.27;;
13611;SDS011;6877;51.436;6.774;2023-04-06T14:48:29;18.75;;;9.98;;
13611;SDS011;6877;51.436;6.774;2023-04-06T14:50:55;16.35;;;8.10;;
13611;SDS011;6877;51.436;6.774;2023-04-06T14:53:22;15.20;;;9.07;;
13611;SDS011;6877;51.436;6.774;2023-04-06T14:55:49;17.92;;;8.73;;
13611;SDS011;6877;51.436;6.774;2023-04-06T14:58:22;13.10;;;8.18;;
13611;SDS011;6877;51.436;6.774;2023-04-06T15:00:58;18.02;;;10.23;;
13611;SDS011;6877;51.436;6.774;2023-04-06T15:03:26;15.05;;;9.20;;
13611;SDS011;6877;51.436;6.774;2023-04-06T15:05:58;18.33;;;9.25;;